createdAt,value
2022-12-25T00:02:17.684Z,101249.63
2022-12-25T00:04:45.673Z,101247.41
2022-12-25T00:07:13.565Z,101241.38
2022-12-25T00:09:41.617Z,101250.84
2022-12-25T00:12:09.464Z,101249.44
2022-12-25T00:14:38.639Z,101244.53
2022-12-25T00:17:06.708Z,101245.06
2022-12-25T00:19:34.581Z,101241.25
2022-12-25T00:22:02.429Z,101235.84
2022-12-25T00:24:30.251Z,101242.84
2022-12-25T00:26:58.197Z,101233.63
2022-12-25T00:29:27.822Z,101234.44
2022-12-25T00:31:57.100Z,101243.91
2022-12-25T00:34:25.075Z,101232.47
2022-12-25T00:36:53.347Z,101228.63
2022-12-25T00:39:21.248Z,101224.81
2022-12-25T00:42:06.342Z,101229.94
2022-12-25T00:44:34.520Z,101218.84
2022-12-25T00:47:04.887Z,101229.06
2022-12-25T00:49:32.958Z,101218.72
2022-12-25T00:52:00.996Z,101228.50
2022-12-25T00:54:28.819Z,101231.72
2022-12-25T00:56:56.870Z,101230.91
2022-12-25T00:59:24.795Z,101231.41
2022-12-25T01:01:52.895Z,101222.97
2022-12-25T01:04:22.192Z,101224.56
2022-12-25T01:06:50.021Z,101221.59
2022-12-25T01:09:35.585Z,101219.06
2022-12-25T01:12:03.401Z,101220.09
2022-12-25T01:14:31.300Z,101216.28
2022-12-25T01:16:59.163Z,101219.50
2022-12-25T01:19:28.764Z,101224.91
2022-12-25T01:21:56.556Z,101225.72
2022-12-25T01:24:24.459Z,101218.91
2022-12-25T01:26:52.293Z,101221.91
2022-12-25T01:29:20.172Z,101217.81
2022-12-25T01:31:48.056Z,101224.34
2022-12-25T01:34:16.054Z,101204.25
2022-12-25T01:36:45.284Z,101206.97
2022-12-25T01:39:13.083Z,101212.88
2022-12-25T01:41:40.954Z,101207.47
2022-12-25T01:44:30.560Z,101207.16
2022-12-25T01:46:58.514Z,101199.84
2022-12-25T01:49:27.465Z,101196.53
2022-12-25T01:51:59.997Z,101202.47
2022-12-25T01:54:31.387Z,101207.88
2022-12-25T01:57:01.873Z,101204.06
2022-12-25T01:59:31.169Z,101221.94
2022-12-25T02:01:59.554Z,101224.94
2022-12-25T02:04:38.918Z,101229.28
2022-12-25T02:07:10.331Z,101223.53
2022-12-25T02:09:38.859Z,101225.97
2022-12-25T02:12:07.790Z,101231.59
2022-12-25T02:14:37.980Z,101225.59
2022-12-25T02:17:12.522Z,101233.41
2022-12-25T02:20:04.039Z,101232.09
2022-12-25T02:22:45.854Z,101234.81
2022-12-25T02:25:32.565Z,101239.44
2022-12-25T02:28:11.942Z,101234.81
2022-12-25T02:30:43.827Z,101242.44
2022-12-25T02:33:34.152Z,101250.50
2022-12-25T02:36:08.562Z,101248.88
2022-12-25T02:38:39.384Z,101241.84
2022-12-25T02:41:12.866Z,101240.75
2022-12-25T02:44:02.706Z,101240.44
2022-12-25T02:46:50.502Z,101239.66
2022-12-25T02:49:41.274Z,101229.59
2022-12-25T02:52:31.196Z,101230.41
2022-12-25T02:55:21.684Z,101233.63
2022-12-25T02:58:10.598Z,101236.03
2022-12-25T03:01:07.054Z,101234.94
2022-12-25T03:03:55.486Z,101246.00
2022-12-25T03:06:46.735Z,101237.28
2022-12-25T03:09:38.484Z,101237.47
2022-12-25T03:12:14.779Z,101222.00
2022-12-25T03:15:00.501Z,101226.84
2022-12-25T03:17:31.632Z,101216.00
2022-12-25T03:20:22.783Z,101216.81
2022-12-25T03:23:08.715Z,101224.63
2022-12-25T03:25:53.992Z,101216.50
2022-12-25T03:28:21.892Z,101207.56
2022-12-25T03:31:12.805Z,101202.94
2022-12-25T03:34:27.157Z,101207.34
2022-12-25T03:37:18.145Z,101190.25
2022-12-25T03:40:09.708Z,101188.03
2022-12-25T03:43:00.008Z,101178.81
2022-12-25T03:45:50.283Z,101173.91
2022-12-25T03:48:36.852Z,101182.84
2022-12-25T03:51:28.416Z,101186.03
2022-12-25T03:54:17.283Z,101175.72
2022-12-25T03:57:03.261Z,101151.78
2022-12-25T03:59:48.606Z,101137.13
2022-12-25T04:02:34.094Z,101132.97
2022-12-25T04:05:20.035Z,101145.16
2022-12-25T04:08:06.944Z,101155.69
2022-12-25T04:10:52.261Z,101151.88
2022-12-25T04:13:37.903Z,101161.31
2022-12-25T04:16:29.469Z,101162.41
2022-12-25T04:19:14.572Z,101176.59
2022-12-25T04:21:59.708Z,101167.94
2022-12-25T04:24:46.968Z,101162.03
2022-12-25T04:27:32.436Z,101154.50
2022-12-25T04:30:20.188Z,101155.09
2022-12-25T04:33:05.224Z,101154.59
2022-12-25T04:35:50.411Z,101158.72
2022-12-25T04:38:20.930Z,101149.00
2022-12-25T04:40:50.174Z,101147.06
2022-12-25T04:43:18.036Z,101153.09
2022-12-25T04:45:53.618Z,101153.72
2022-12-25T04:48:21.551Z,101132.00
2022-12-25T04:50:49.391Z,101141.25
2022-12-25T04:53:18.387Z,101146.69
2022-12-25T04:55:46.288Z,101139.84
2022-12-25T04:58:15.822Z,101129.19
2022-12-25T05:00:43.620Z,101126.97
2022-12-25T05:03:11.574Z,101128.59
2022-12-25T05:05:41.255Z,101130.19
2022-12-25T05:08:09.148Z,101134.00
2022-12-25T05:10:36.973Z,101134.81
2022-12-25T05:13:05.023Z,101134.00
2022-12-25T05:15:34.285Z,101134.00
2022-12-25T05:18:02.171Z,101136.72
2022-12-25T05:20:34.721Z,101131.28
2022-12-25T05:23:05.960Z,101136.22
2022-12-25T05:25:33.820Z,101134.00
2022-12-25T05:28:01.627Z,101130.19
2022-12-25T05:30:29.429Z,101140.44
2022-12-25T05:32:58.684Z,101137.44
2022-12-25T05:35:26.769Z,101132.00
2022-12-25T05:37:54.605Z,101129.78
2022-12-25T05:40:22.361Z,101128.34
2022-12-25T05:42:50.341Z,101131.59
2022-12-25T05:45:18.344Z,101120.13
2022-12-25T05:47:46.150Z,101114.06
2022-12-25T05:50:15.355Z,101113.97
2022-12-25T05:52:43.327Z,101109.03
2022-12-25T05:55:11.347Z,101120.72
2022-12-25T05:57:39.127Z,101125.31
2022-12-25T06:00:08.371Z,101113.38
2022-12-25T06:02:36.510Z,101112.84
2022-12-25T06:05:04.747Z,101116.38
2022-12-25T06:07:33.914Z,101106.63
2022-12-25T06:10:02.136Z,101081.41
2022-12-25T06:12:29.960Z,101092.75
2022-12-25T06:14:57.825Z,101091.16
2022-12-25T06:17:27.139Z,101092.75
2022-12-25T06:19:55.805Z,101080.28
2022-12-25T06:22:23.887Z,101079.19
2022-12-25T06:24:53.316Z,101072.66
2022-12-25T06:27:21.115Z,101078.09
2022-12-25T06:29:49.033Z,101081.09
2022-12-25T06:32:17.254Z,101066.44
2022-12-25T06:34:45.306Z,101066.13
2022-12-25T06:37:13.202Z,101071.88
2022-12-25T06:39:41.083Z,101065.59
2022-12-25T06:42:10.484Z,101066.44
2022-12-25T06:44:39.355Z,101047.13
2022-12-25T06:47:07.257Z,101049.84
2022-12-25T06:49:35.203Z,101055.28
2022-12-25T06:52:03.075Z,101057.47
2022-12-25T06:54:31.155Z,101047.72
2022-12-25T06:56:59.230Z,101045.31
2022-12-25T06:59:28.576Z,101052.50
2022-12-25T07:01:58.688Z,101052.78
2022-12-25T07:04:32.130Z,101059.00
2022-12-25T07:07:06.166Z,101047.34
2022-12-25T07:09:38.743Z,101041.44
2022-12-25T07:12:09.405Z,101032.50
2022-12-25T07:14:38.737Z,101020.84
2022-12-25T07:17:06.821Z,101013.81
2022-12-25T07:19:38.233Z,101004.56
2022-12-25T07:22:09.032Z,100997.00
2022-12-25T07:24:36.938Z,100985.09
2022-12-25T07:27:05.051Z,100991.59
2022-12-25T07:29:33.013Z,100987.47
2022-12-25T07:32:02.377Z,100986.06
2022-12-25T07:34:30.412Z,100989.25
2022-12-25T07:36:58.282Z,100996.31
2022-12-25T07:39:26.180Z,101004.13
2022-12-25T07:41:54.111Z,101002.22
2022-12-25T07:44:22.084Z,101001.72
2022-12-25T07:46:49.954Z,100994.09
2022-12-25T07:49:19.314Z,100981.63
2022-12-25T07:51:47.145Z,100982.44
2022-12-25T07:54:15.027Z,100973.50
2022-12-25T07:56:42.922Z,100973.16
2022-12-25T07:59:10.891Z,100977.81
2022-12-25T08:01:40.706Z,100971.56
2022-12-25T08:04:09.496Z,100977.81
2022-12-25T08:06:39.780Z,100981.63
2022-12-25T08:09:09.247Z,100973.97
2022-12-25T08:11:37.733Z,100992.66
2022-12-25T08:14:07.040Z,101009.25
2022-12-25T08:16:34.998Z,101011.66
2022-12-25T08:19:02.996Z,101004.31
2022-12-25T08:21:30.947Z,101003.72
2022-12-25T08:24:00.194Z,101001.47
2022-12-25T08:26:28.143Z,101012.81
2022-12-25T08:28:56.317Z,101024.19
2022-12-25T08:31:26.324Z,101011.91
2022-12-25T08:33:55.644Z,100991.00
2022-12-25T08:36:24.238Z,100977.75
2022-12-25T08:38:54.586Z,100986.19
2022-12-25T08:41:28.378Z,101003.56
2022-12-25T08:43:56.342Z,101000.84
2022-12-25T08:46:24.499Z,101018.25
2022-12-25T08:48:52.853Z,101030.72
2022-12-25T08:51:23.248Z,101045.91
2022-12-25T08:53:53.660Z,101038.25
2022-12-25T08:56:22.167Z,101027.41
2022-12-25T08:58:51.556Z,101016.53
2022-12-25T09:01:19.693Z,101012.72
2022-12-25T09:03:47.648Z,101001.84
2022-12-25T09:06:17.683Z,100995.31
2022-12-25T09:08:49.231Z,100987.16
2022-12-25T09:11:19.762Z,100992.00
2022-12-25T09:13:47.815Z,100995.50
2022-12-25T09:16:20.189Z,100988.66
2022-12-25T09:18:48.206Z,100993.44
2022-12-25T09:21:17.141Z,100994.44
2022-12-25T09:23:45.475Z,100994.13
2022-12-25T09:26:16.587Z,100994.94
2022-12-25T09:28:50.916Z,101009.63
2022-12-25T09:31:22.992Z,101025.09
2022-12-25T09:33:51.701Z,101032.13
2022-12-25T09:36:21.333Z,101029.44
2022-12-25T09:38:49.230Z,101029.75
2022-12-25T09:41:21.072Z,101034.38
2022-12-25T09:43:54.008Z,101034.06
2022-12-25T09:46:30.174Z,101049.22
2022-12-25T09:49:09.447Z,101044.59
2022-12-25T09:51:41.827Z,101039.97
2022-12-25T09:54:17.689Z,101043.00
2022-12-25T09:56:45.517Z,101048.75
2022-12-25T09:59:22.567Z,101026.84
2022-12-25T10:02:05.044Z,101009.25
2022-12-25T10:04:52.681Z,100995.69
2022-12-25T10:07:31.180Z,100987.72
2022-12-25T10:10:10.653Z,100997.16
2022-12-25T10:12:50.368Z,100996.38
2022-12-25T10:15:31.677Z,100996.69
2022-12-25T10:18:31.887Z,100985.50
2022-12-25T10:21:02.215Z,100970.81
2022-12-25T10:23:33.778Z,100950.53
2022-12-25T10:26:02.857Z,100945.09
2022-12-25T10:28:36.220Z,100948.94
2022-12-25T10:31:21.663Z,100941.88
2022-12-25T10:33:53.221Z,100954.22
2022-12-25T10:36:23.165Z,100942.75
2022-12-25T10:38:51.467Z,100946.56
2022-12-25T10:41:50.355Z,100949.56
2022-12-25T10:44:24.461Z,100947.53
2022-12-25T10:46:55.687Z,100952.66
2022-12-25T10:49:27.793Z,100940.38
2022-12-25T10:51:55.671Z,100938.94
2022-12-25T10:54:26.087Z,100939.13
2022-12-25T10:56:55.754Z,100938.50
2022-12-25T10:59:24.633Z,100916.78
2022-12-25T11:01:55.450Z,100912.34
2022-12-25T11:04:28.899Z,100913.94
2022-12-25T11:06:59.379Z,100909.78
2022-12-25T11:09:27.258Z,100904.66
2022-12-25T11:11:55.398Z,100898.59
2022-12-25T11:14:23.890Z,100901.81
2022-12-25T11:16:51.749Z,100899.09
2022-12-25T11:19:29.778Z,100896.69
2022-12-25T11:22:00.115Z,100892.56
2022-12-25T11:24:30.702Z,100880.09
2022-12-25T11:27:01.421Z,100880.56
2022-12-25T11:29:38.549Z,100860.28
2022-12-25T11:32:13.888Z,100866.00
2022-12-25T11:34:46.791Z,100848.59
2022-12-25T11:37:18.710Z,100839.03
2022-12-25T11:39:46.907Z,100822.72
2022-12-25T11:42:20.888Z,100821.13
2022-12-25T11:44:54.437Z,100802.91
2022-12-25T11:47:27.159Z,100797.97
2022-12-25T11:50:01.768Z,100784.06
2022-12-25T11:52:33.527Z,100770.31
2022-12-25T11:55:06.575Z,100764.56
2022-12-25T11:57:38.338Z,100765.38
2022-12-25T12:00:10.448Z,100780.22
2022-12-25T12:02:45.453Z,100783.72
2022-12-25T12:05:21.429Z,100792.72
2022-12-25T12:07:55.849Z,100795.56
2022-12-25T12:10:34.144Z,100790.94
2022-12-25T12:13:20.846Z,100785.50
2022-12-25T12:15:50.262Z,100780.56
2022-12-25T12:18:24.017Z,100779.75
2022-12-25T12:21:06.021Z,100780.88
2022-12-25T12:23:37.566Z,100768.88
2022-12-25T12:26:05.993Z,100758.53
2022-12-25T12:28:46.043Z,100737.09
2022-12-25T12:31:14.819Z,100744.94
2022-12-25T12:33:50.055Z,100751.63
2022-12-25T12:36:34.434Z,100757.22
2022-12-25T12:39:03.303Z,100769.06
2022-12-25T12:41:45.852Z,100765.38
2022-12-25T12:44:15.767Z,100763.31
2022-12-25T12:46:53.228Z,100741.56
2022-12-25T12:49:25.088Z,100723.84
2022-12-25T12:52:07.987Z,100727.66
2022-12-25T12:54:53.850Z,100732.47
2022-12-25T12:57:27.184Z,100731.53
2022-12-25T12:59:55.204Z,100730.41
2022-12-25T13:03:00.043Z,100728.63
2022-12-25T13:05:37.879Z,100716.31
2022-12-25T13:08:17.286Z,100713.13
2022-12-25T13:10:49.686Z,100717.09
2022-12-25T13:13:23.199Z,100710.88
2022-12-25T13:15:52.999Z,100709.78
2022-12-25T13:18:21.880Z,100704.00
2022-12-25T13:20:55.123Z,100707.19
2022-12-25T13:23:30.328Z,100708.78
2022-12-25T13:25:59.923Z,100697.94
2022-12-25T13:28:31.410Z,100699.50
2022-12-25T13:31:08.075Z,100701.09
2022-12-25T13:33:36.261Z,100691.19
2022-12-25T13:36:05.897Z,100692.78
2022-12-25T13:38:35.781Z,100690.53
2022-12-25T13:41:21.623Z,100690.06
2022-12-25T13:43:50.140Z,100685.78
2022-12-25T13:46:26.463Z,100691.66
2022-12-25T13:49:00.354Z,100690.53
2022-12-25T13:51:30.421Z,100682.88
2022-12-25T13:54:07.145Z,100693.75
2022-12-25T13:56:36.032Z,100689.25
2022-12-25T13:59:05.025Z,100682.69
2022-12-25T14:01:36.148Z,100686.25
2022-12-25T14:04:05.510Z,100675.06
2022-12-25T14:06:33.910Z,100681.31
2022-12-25T14:09:02.090Z,100669.63
2022-12-25T14:11:33.493Z,100672.34
2022-12-25T14:14:04.885Z,100669.31
2022-12-25T14:16:33.389Z,100668.50
2022-12-25T14:19:03.480Z,100664.66
2022-12-25T14:21:33.965Z,100655.38
2022-12-25T14:24:02.582Z,100656.97
2022-12-25T14:26:34.187Z,100663.53
2022-12-25T14:29:16.752Z,100659.22
2022-12-25T14:31:46.479Z,100658.09
2022-12-25T14:34:18.074Z,100662.41
2022-12-25T14:36:46.645Z,100653.13
2022-12-25T14:39:31.296Z,100660.81
2022-12-25T14:42:03.007Z,100657.47
2022-12-25T14:44:36.886Z,100655.38
2022-12-25T14:47:07.090Z,100652.19
2022-12-25T14:49:35.027Z,100647.34
2022-12-25T14:52:11.380Z,100651.19
2022-12-25T14:54:39.303Z,100647.69
2022-12-25T14:57:08.602Z,100649.59
2022-12-25T14:59:36.779Z,100648.03
2022-12-25T15:02:05.191Z,100644.19
2022-12-25T15:04:33.181Z,100643.06
2022-12-25T15:07:07.172Z,100648.19
2022-12-25T15:09:36.167Z,100646.56
2022-12-25T15:12:04.622Z,100642.59
2022-12-25T15:14:36.459Z,100638.75
2022-12-25T15:17:04.588Z,100629.31
2022-12-25T15:19:37.987Z,100621.50
2022-12-25T15:22:06.926Z,100616.06
2022-12-25T15:24:34.889Z,100613.00
2022-12-25T15:27:02.790Z,100609.97
2022-12-25T15:30:09.083Z,100606.78
2022-12-25T15:32:22.269Z,100599.09
2022-12-25T15:34:50.745Z,100599.88
2022-12-25T15:37:19.619Z,100585.16
2022-12-25T15:39:47.651Z,100585.97
2022-12-25T15:42:17.930Z,100575.59
2022-12-25T15:44:46.556Z,100581.03
2022-12-25T15:47:17.193Z,100589.19
2022-12-25T15:49:46.797Z,100586.63
2022-12-25T15:52:15.943Z,100589.50
2022-12-25T15:54:44.260Z,100584.84
2022-12-25T15:57:18.675Z,100581.81
2022-12-25T15:59:46.528Z,100574.13
2022-12-25T16:02:16.935Z,100586.56
2022-12-25T16:04:47.145Z,100586.56
2022-12-25T16:07:16.473Z,100584.19
2022-12-25T16:09:44.828Z,100587.72
2022-12-25T16:12:12.738Z,100585.78
2022-12-25T16:14:40.535Z,100577.97
2022-12-25T16:17:08.838Z,100576.84
2022-12-25T16:19:36.703Z,100574.13
2022-12-25T16:22:12.899Z,100574.13
2022-12-25T16:24:41.023Z,100571.84
2022-12-25T16:27:09.234Z,100582.09
2022-12-25T16:29:37.055Z,100573.94
2022-12-25T16:32:05.231Z,100588.00
2022-12-25T16:34:33.047Z,100580.00
2022-12-25T16:37:00.981Z,100587.03
2022-12-25T16:39:30.519Z,100579.34
2022-12-25T16:41:58.368Z,100580.13
2022-12-25T16:44:27.004Z,100579.00
2022-12-25T16:46:54.969Z,100590.38
2022-12-25T16:49:22.907Z,100585.72
2022-12-25T16:51:50.775Z,100577.22
2022-12-25T16:54:18.667Z,100574.19
2022-12-25T16:56:48.397Z,100576.56
2022-12-25T16:59:16.277Z,100572.72
2022-12-25T17:01:44.431Z,100569.69
2022-12-25T17:04:12.463Z,100559.59
2022-12-25T17:06:40.650Z,100558.47
2022-12-25T17:09:08.644Z,100572.06
2022-12-25T17:11:39.831Z,100578.31
2022-12-25T17:14:09.105Z,100573.66
2022-12-25T17:16:38.555Z,100568.22
2022-12-25T17:19:09.733Z,100570.47
2022-12-25T17:21:38.384Z,100568.88
2022-12-25T17:24:07.138Z,100568.88
2022-12-25T17:26:35.338Z,100565.03
2022-12-25T17:29:03.314Z,100567.28
2022-12-25T17:31:34.644Z,100575.91
2022-12-25T17:34:03.002Z,100572.06
2022-12-25T17:36:31.036Z,100570.47
2022-12-25T17:39:00.684Z,100573.19
2022-12-25T17:41:28.766Z,100578.66
2022-12-25T17:43:56.766Z,100575.91
2022-12-25T17:46:26.781Z,100575.25
2022-12-25T17:48:58.582Z,100568.22
2022-12-25T17:51:28.333Z,100565.97
2022-12-25T17:53:57.814Z,100569.16
2022-12-25T17:56:26.184Z,100563.72
2022-12-25T17:58:56.703Z,100572.34
2022-12-25T18:01:25.790Z,100577.00
2022-12-25T18:03:53.954Z,100578.59
2022-12-25T18:06:25.205Z,100573.16
2022-12-25T18:08:55.148Z,100579.38
2022-12-25T18:11:27.554Z,100573.94
2022-12-25T18:13:57.980Z,100579.38
2022-12-25T18:16:27.913Z,100591.06
2022-12-25T18:18:55.946Z,100580.97
2022-12-25T18:21:25.481Z,100590.41
2022-12-25T18:23:53.575Z,100577.91
2022-12-25T18:26:21.919Z,100579.84
2022-12-25T18:28:50.700Z,100584.16
2022-12-25T18:31:21.079Z,100583.34
2022-12-25T18:33:50.063Z,100573.28
2022-12-25T18:36:20.618Z,100573.75
2022-12-25T18:38:53.952Z,100576.47
2022-12-25T18:41:23.213Z,100586.69
2022-12-25T18:43:55.676Z,100578.19
2022-12-25T18:46:25.384Z,100579.00
2022-12-25T18:48:54.154Z,100584.44
2022-12-25T18:51:22.034Z,100589.41
2022-12-25T18:53:52.029Z,100584.66
2022-12-25T18:56:20.553Z,100584.50
2022-12-25T18:58:48.957Z,100586.41
2022-12-25T19:01:19.395Z,100591.06
2022-12-25T19:03:49.106Z,100603.88
2022-12-25T19:06:21.886Z,100597.28
2022-12-25T19:08:51.227Z,100600.47
2022-12-25T19:11:20.435Z,100600.47
2022-12-25T19:13:48.317Z,100615.22
2022-12-25T19:16:16.478Z,100606.75
2022-12-25T19:18:45.069Z,100606.59
2022-12-25T19:21:12.937Z,100605.00
2022-12-25T19:23:40.770Z,100611.91
2022-12-25T19:26:12.088Z,100602.44
2022-12-25T19:28:41.198Z,100606.31
2022-12-25T19:31:11.159Z,100606.31
2022-12-25T19:33:41.085Z,100609.03
2022-12-25T19:36:10.773Z,100617.19
2022-12-25T19:38:39.061Z,100621.03
2022-12-25T19:41:09.262Z,100617.19
2022-12-25T19:43:39.659Z,100618.31
2022-12-25T19:46:09.415Z,100627.25
2022-12-25T19:48:37.429Z,100623.75
2022-12-25T19:51:05.348Z,100622.63
2022-12-25T19:53:33.241Z,100621.81
2022-12-25T19:56:03.795Z,100618.31
2022-12-25T19:58:33.203Z,100606.97
2022-12-25T20:01:03.118Z,100599.59
2022-12-25T20:03:31.131Z,100602.63
2022-12-25T20:05:59.201Z,100595.59
2022-12-25T20:08:27.181Z,100603.75
2022-12-25T20:10:55.484Z,100616.56
2022-12-25T20:13:23.449Z,100611.13
2022-12-25T20:15:53.011Z,100610.78
2022-12-25T20:18:21.095Z,100613.50
2022-12-25T20:20:49.336Z,100610.78
2022-12-25T20:23:17.220Z,100621.66
2022-12-25T20:25:45.220Z,100630.66
2022-12-25T20:28:13.359Z,100624.09
2022-12-25T20:30:41.572Z,100619.44
2022-12-25T20:33:11.039Z,100629.19
2022-12-25T20:35:38.891Z,100615.25
2022-12-25T20:38:06.815Z,100614.94
2022-12-25T20:40:52.858Z,100614.94
2022-12-25T20:43:22.913Z,100605.63
2022-12-25T20:45:52.749Z,100605.63
2022-12-25T20:48:22.129Z,100609.97
2022-12-25T20:50:50.051Z,100614.28
2022-12-25T20:53:19.544Z,100619.72
2022-12-25T20:55:48.160Z,100623.56
2022-12-25T20:58:17.405Z,100615.41
2022-12-25T21:00:46.316Z,100610.28
2022-12-25T21:03:14.405Z,100635.88
2022-12-25T21:05:50.732Z,100631.91
2022-12-25T21:08:19.086Z,100622.63
2022-12-25T21:10:50.679Z,100619.56
2022-12-25T21:13:18.980Z,100611.06
2022-12-25T21:15:48.878Z,100613.78
2022-12-25T21:18:17.828Z,100622.44
2022-12-25T21:20:48.766Z,100620.84
2022-12-25T21:23:16.988Z,100621.31
2022-12-25T21:25:45.297Z,100606.59
2022-12-25T21:28:13.406Z,100622.56
2022-12-25T21:30:41.556Z,100626.09
2022-12-25T21:33:28.443Z,100631.53
2022-12-25T21:35:57.915Z,100632.31
2022-12-25T21:38:25.735Z,100642.41
2022-12-25T21:40:53.699Z,100648.66
2022-12-25T21:43:21.594Z,100659.53
2022-12-25T21:45:49.657Z,100664.19
2022-12-25T21:48:17.449Z,100672.34
2022-12-25T21:51:02.477Z,100687.53
2022-12-25T21:53:31.683Z,100670.28
2022-12-25T21:56:02.193Z,100683.88
2022-12-25T21:58:30.176Z,100679.56
2022-12-25T22:01:02.215Z,100663.25
2022-12-25T22:03:30.036Z,100677.97
2022-12-25T22:06:21.111Z,100679.56
2022-12-25T22:08:50.960Z,100658.16
2022-12-25T22:11:36.351Z,100669.81
2022-12-25T22:14:50.391Z,100661.66
2022-12-25T22:17:28.108Z,100664.69
2022-12-25T22:19:56.190Z,100663.88
2022-12-25T22:22:26.378Z,100680.72
2022-12-25T22:24:57.837Z,100678.28
2022-12-25T22:27:26.045Z,100674.78
2022-12-25T22:29:53.884Z,100679.75
2022-12-25T22:32:22.128Z,100678.63
2022-12-25T22:34:50.121Z,100682.47
2022-12-25T22:37:19.917Z,100677.81
2022-12-25T22:39:48.112Z,100688.38
2022-12-25T22:42:17.821Z,100691.09
2022-12-25T22:44:46.680Z,100692.69
2022-12-25T22:47:14.532Z,100699.75
2022-12-25T22:49:42.764Z,100699.75
2022-12-25T22:52:10.920Z,100698.13
2022-12-25T22:54:39.353Z,100698.13
2022-12-25T22:57:07.297Z,100707.13
2022-12-25T22:59:36.704Z,100691.88
2022-12-25T23:02:04.673Z,100695.09
2022-12-25T23:04:33.717Z,100685.00
2022-12-25T23:07:02.043Z,100709.16
2022-12-25T23:09:30.199Z,100708.84
2022-12-25T23:11:59.110Z,100707.72
2022-12-25T23:14:39.907Z,100714.75
2022-12-25T23:17:31.951Z,100710.13
2022-12-25T23:20:19.097Z,100710.91
2022-12-25T23:23:05.173Z,100709.28
2022-12-25T23:25:52.708Z,100705.78
2022-12-25T23:28:40.841Z,100713.16
2022-12-25T23:31:08.143Z,100708.50
2022-12-25T23:33:37.533Z,100702.25
2022-12-25T23:36:06.207Z,100705.47
2022-12-25T23:38:34.127Z,100711.22
2022-12-25T23:41:01.982Z,100696.81
2022-12-25T23:43:29.996Z,100701.47
2022-12-25T23:45:57.759Z,100703.84
2022-12-25T23:48:25.593Z,100692.97
2022-12-25T23:50:54.857Z,100683.56
2022-12-25T23:53:22.745Z,100690.47
2022-12-25T23:55:55.544Z,100699.75
2022-12-25T23:58:23.888Z,100698.13
